CheckWX is a tool to help pilots better visualize weather data.  It is not intended as a substitute for an official pre-flight weather briefing.

22:33:34 UTC

KJOT METAR
Joliet Regional Airport
Joliet, Illinois, USA
Current

19 mins ago

KJOT 152215Z AUTO 22010G19KT 10SM SCT050 31/19 A2999 RMK AO2 T03100191
Observed
Jul-15 @ 22:15 UTC
Wind
  • 220° at 10 KTS
  • Gusting to 19 KTS
Visibility
10 SM
Flight Rules
VFR
Cloud Levels
  • Scattered at 5,000' AGL
Temperature
31°C / 88°F
Dewpoint
19°C / 66°F
Heat Index
33°C / 91°F
Humidity
49%
Altimeter
29.99" Hg
Pressure
1015.62 hPa
Previous

39 mins ago

KJOT 152155Z AUTO 20009G21KT 10SM SCT050 31/19 A3000 RMK AO2 LTG DSNT NW T03090189
Observed
Jul-15 @ 21:55 UTC
Wind
  • 200° at 9 KTS
  • Gusting to 21 KTS
Visibility
10 SM
Flight Rules
VFR
Cloud Levels
  • Scattered at 5,000' AGL
Temperature
31°C / 88°F
Dewpoint
19°C / 66°F
Heat Index
33°C / 91°F
Humidity
49%
Altimeter
30" Hg
Pressure
1015.92 hPa
Previous

59 mins ago

KJOT 152135Z AUTO 21010G20KT 10SM SCT048 SCT055 31/20 A3000 RMK AO2 T03110196
Observed
Jul-15 @ 21:35 UTC
Wind
  • 210° at 10 KTS
  • Gusting to 20 KTS
Visibility
10 SM
Flight Rules
VFR
Cloud Levels
  • Scattered at 4,800' AGL
  • Scattered at 5,500' AGL
Temperature
31°C / 88°F
Dewpoint
20°C / 68°F
Heat Index
33°C / 92°F
Humidity
52%
Altimeter
30" Hg
Pressure
1015.92 hPa